Time;durP1;ratioP1;P1;durP2;ratioP2;P2;SDS_P1;SDS_P2;PMS_P1;PMS_P2;Temp;Humidity;BMP_temperature;BMP_pressure;BME280_temperature;BME280_humidity;BME280_pressure;Samples;Min_cycle;Max_cycle;Signal;HPM_P1;HPM_P2
2023/08/09 00:01:55;;;;;;;1.90;0.88;;;;;;;15.08;100.00;100217.88;5248079;28;20475;-75
2023/08/09 00:04:25;;;;;;;2.22;1.00;;;;;;;15.16;100.00;100210.34;5248963;28;20043;-77
2023/08/09 00:06:55;;;;;;;4.72;1.10;;;;;;;15.20;100.00;100200.50;5241150;28;20108;-77
2023/08/09 00:09:26;;;;;;;2.95;0.90;;;;;;;15.07;100.00;100196.91;5249412;28;20027;-77
2023/08/09 00:11:56;;;;;;;4.00;1.00;;;;;;;15.09;100.00;100203.78;5247663;28;20490;-77
2023/08/09 00:14:26;;;;;;;1.80;0.80;;;;;;;15.07;100.00;100205.66;5243118;28;20031;-77
2023/08/09 00:16:57;;;;;;;1.75;0.80;;;;;;;15.05;100.00;100198.78;5246038;28;20028;-76
2023/08/09 00:19:28;;;;;;;2.78;0.73;;;;;;;14.95;100.00;100187.97;5237118;28;20028;-77
2023/08/09 00:21:58;;;;;;;1.67;0.90;;;;;;;14.93;100.00;100181.94;5246579;28;20024;-77
2023/08/09 00:24:28;;;;;;;2.20;0.85;;;;;;;14.90;100.00;100182.13;5226833;28;20629;-76
2023/08/09 00:26:59;;;;;;;2.28;0.95;;;;;;;14.87;100.00;100181.47;5242596;28;20024;-77
2023/08/09 00:29:29;;;;;;;2.47;0.80;;;;;;;14.91;100.00;100185.59;5244442;28;20031;-78
2023/08/09 00:31:59;;;;;;;3.13;0.90;;;;;;;15.09;100.00;100190.63;5249785;28;20093;-78
2023/08/09 00:34:30;;;;;;;2.35;0.93;;;;;;;15.04;100.00;100190.03;5242891;28;20113;-77
2023/08/09 00:37:01;;;;;;;4.07;0.93;;;;;;;15.01;100.00;100179.69;5267617;22;20048;-73
2023/08/09 00:39:32;;;;;;;1.80;0.80;;;;;;;15.03;100.00;100175.19;5234701;28;20198;-73
2023/08/09 00:42:02;;;;;;;3.03;0.80;;;;;;;14.90;100.00;100173.38;5235612;28;20108;-73
2023/08/09 00:44:32;;;;;;;2.97;0.95;;;;;;;14.87;100.00;100179.66;5239616;28;20020;-73
2023/08/09 00:47:03;;;;;;;2.35;0.90;;;;;;;14.95;100.00;100177.44;5214068;28;20576;-73
2023/08/09 00:49:34;;;;;;;1.92;0.90;;;;;;;15.00;100.00;100175.38;5236296;28;20021;-73
2023/08/09 00:52:05;;;;;;;2.15;0.98;;;;;;;14.96;100.00;100173.88;5236868;28;20062;-73
2023/08/09 00:54:38;;;;;;;4.30;0.90;;;;;;;15.03;100.00;100172.53;5241538;28;20052;-73
2023/08/09 00:57:09;;;;;;;2.67;0.88;;;;;;;15.00;100.00;100167.47;5239280;28;20028;-73
2023/08/09 00:59:39;;;;;;;1.48;0.88;;;;;;;14.95;100.00;100174.81;5236915;28;20483;-72
2023/08/09 01:02:10;;;;;;;1.48;0.88;;;;;;;14.96;100.00;100181.75;5235744;28;20119;-74
2023/08/09 01:04:40;;;;;;;2.13;1.10;;;;;;;14.80;100.00;100168.75;5239079;28;20024;-73
2023/08/09 01:07:17;;;;;;;2.97;0.98;;;;;;;14.85;100.00;100178.91;5226731;28;20021;-72
2023/08/09 01:10:02;;;;;;;5.55;1.00;;;;;;;14.82;100.00;100190.56;5236724;28;20536;-73
2023/08/09 01:12:53;;;;;;;2.33;0.80;;;;;;;14.80;100.00;100189.81;5238576;28;20402;-73
2023/08/09 01:15:24;;;;;;;2.17;0.80;;;;;;;14.82;100.00;100200.13;5239204;28;20462;-73
2023/08/09 01:21:26;;;;;;;2.45;1.10;;;;;;;14.71;100.00;100185.06;5233801;28;20032;-73
2023/08/09 01:23:56;;;;;;;2.15;0.80;;;;;;;14.82;100.00;100176.47;5238385;28;20494;-73
2023/08/09 01:26:26;;;;;;;2.45;1.02;;;;;;;14.79;100.00;100185.47;5237472;28;20059;-74
2023/08/09 01:28:57;;;;;;;4.13;1.15;;;;;;;14.69;100.00;100193.06;5236243;28;20020;-73
2023/08/09 01:31:27;;;;;;;1.80;0.75;;;;;;;14.76;100.00;100190.94;5238801;28;20030;-73
2023/08/09 01:33:57;;;;;;;2.60;1.00;;;;;;;14.61;100.00;100189.19;5240193;28;20074;-73
2023/08/09 01:36:33;;;;;;;2.13;0.80;;;;;;;14.66;100.00;100182.72;5241851;28;20039;-73
2023/08/09 01:39:10;;;;;;;;;;;;;;;14.71;100.00;100171.91;5240677;28;20055;-73
2023/08/09 01:41:43;;;;;;;3.53;0.95;;;;;;;14.63;100.00;100179.41;5241103;28;19916;-73
2023/08/09 01:44:14;;;;;;;3.45;1.00;;;;;;;14.58;100.00;100194.63;5240241;28;20016;-72
2023/08/09 01:46:45;;;;;;;1.42;0.80;;;;;;;14.59;100.00;100199.78;5242323;28;20020;-73
2023/08/09 01:49:22;;;;;;;2.10;0.98;;;;;;;14.57;100.00;100199.03;5240156;28;20120;-73
2023/08/09 01:51:52;;;;;;;1.35;0.70;;;;;;;14.57;100.00;100203.47;5238550;28;20024;-73
2023/08/09 01:54:24;;;;;;;1.63;0.90;;;;;;;14.62;100.00;100202.22;5240951;28;20032;-73
2023/08/09 01:56:54;;;;;;;2.85;1.10;;;;;;;14.52;100.00;100187.94;5238847;28;20069;-71
2023/08/09 01:59:25;;;;;;;4.97;1.08;;;;;;;14.56;100.00;100202.59;5239677;28;20033;-73
2023/08/09 02:01:55;;;;;;;1.77;1.00;;;;;;;14.51;100.00;100206.41;5240654;28;20047;-72
2023/08/09 02:04:25;;;;;;;1.73;1.00;;;;;;;14.44;100.00;100216.44;5240139;28;20474;-72
2023/08/09 02:06:56;;;;;;;1.58;0.98;;;;;;;14.52;100.00;100222.13;5238889;28;20048;-73
2023/08/09 02:09:30;;;;;;;3.92;1.00;;;;;;;14.40;100.00;100222.81;5241510;28;20062;-74
2023/08/09 02:12:00;;;;;;;3.47;1.02;;;;;;;14.39;100.00;100231.63;5242998;28;20032;-73
2023/08/09 02:14:30;;;;;;;3.45;0.98;;;;;;;14.34;100.00;100223.16;5240888;28;20398;-73
2023/08/09 02:17:02;;;;;;;2.83;1.00;;;;;;;14.33;100.00;100223.25;5241584;28;20039;-73
2023/08/09 02:19:32;;;;;;;3.90;1.00;;;;;;;14.24;100.00;100218.50;5242680;28;20016;-73
2023/08/09 02:22:03;;;;;;;2.60;1.13;;;;;;;14.27;100.00;100221.78;5241013;28;20024;-73
2023/08/09 02:24:33;;;;;;;3.47;1.10;;;;;;;14.30;100.00;100215.53;5241133;28;20048;-73
2023/08/09 02:27:03;;;;;;;2.22;1.10;;;;;;;14.25;100.00;100214.94;5242291;28;20363;-74
2023/08/09 02:29:34;;;;;;;1.70;0.77;;;;;;;14.22;100.00;100212.50;5242367;28;20023;-73
2023/08/09 02:32:04;;;;;;;4.75;1.02;;;;;;;14.21;100.00;100209.00;5243647;28;20027;-73
2023/08/09 02:34:35;;;;;;;3.83;1.00;;;;;;;14.04;100.00;100208.19;5245647;28;20428;-73
2023/08/09 02:37:05;;;;;;;4.97;1.00;;;;;;;14.00;100.00;100207.53;5243983;28;20147;-73
2023/08/09 02:39:36;;;;;;;2.55;0.88;;;;;;;14.07;100.00;100205.44;5246144;28;20106;-74
2023/08/09 02:42:06;;;;;;;3.53;0.88;;;;;;;13.88;100.00;100207.38;5240295;28;20499;-73
2023/08/09 02:44:37;;;;;;;2.80;1.10;;;;;;;13.80;100.00;100202.53;5239925;28;20118;-73
2023/08/09 02:47:08;;;;;;;1.73;0.93;;;;;;;13.78;100.00;100204.38;5233425;28;20029;-72
2023/08/09 02:49:38;;;;;;;1.50;0.80;;;;;;;13.74;100.00;100205.47;5241587;28;20025;-73
2023/08/09 02:52:08;;;;;;;10.23;1.00;;;;;;;13.69;100.00;100207.53;5238859;28;20035;-71
2023/08/09 02:54:39;;;;;;;2.63;0.82;;;;;;;13.55;100.00;100215.28;5221601;28;20036;-73
2023/08/09 02:57:09;;;;;;;4.65;1.00;;;;;;;13.62;100.00;100213.19;5240223;28;20063;-72
2023/08/09 02:59:40;;;;;;;2.80;1.02;;;;;;;13.61;100.00;100209.69;5240039;28;20143;-73
2023/08/09 03:02:10;;;;;;;3.95;1.00;;;;;;;13.45;100.00;100210.59;5256546;28;20490;-72
2023/08/09 03:04:40;;;;;;;2.85;1.35;;;;;;;13.35;100.00;100222.50;5240519;28;20103;-73
2023/08/09 03:07:11;;;;;;;2.53;1.02;;;;;;;13.32;100.00;100223.53;5239385;28;20463;-72
2023/08/09 03:09:41;;;;;;;3.97;1.02;;;;;;;13.33;100.00;100235.72;5242145;28;20136;-74
2023/08/09 03:12:11;;;;;;;3.67;1.55;;;;;;;13.32;100.00;100228.78;5240830;28;20394;-73
2023/08/09 03:14:41;;;;;;;2.15;1.02;;;;;;;13.20;100.00;100239.91;5244887;28;20106;-73
2023/08/09 03:17:12;;;;;;;1.65;0.80;;;;;;;13.27;100.00;100232.56;5243326;28;20036;-72
2023/08/09 03:19:43;;;;;;;5.20;1.10;;;;;;;13.15;100.00;100239.31;5243972;28;20024;-74
2023/08/09 03:22:13;;;;;;;2.80;1.05;;;;;;;13.17;100.00;100241.84;5243552;28;20025;-73
2023/08/09 03:24:43;;;;;;;7.70;1.08;;;;;;;13.07;100.00;100244.06;5243841;28;20127;-73
2023/08/09 03:27:14;;;;;;;4.45;1.00;;;;;;;12.93;100.00;100245.72;5243755;28;20085;-71
2023/08/09 03:29:44;;;;;;;2.42;1.17;;;;;;;13.01;100.00;100256.66;5242305;28;20102;-73
2023/08/09 03:32:14;;;;;;;3.60;1.35;;;;;;;12.96;100.00;100252.59;5240649;28;20028;-73
2023/08/09 03:34:44;;;;;;;2.17;1.45;;;;;;;13.03;100.00;100258.28;5230289;28;20073;-74
2023/08/09 03:37:15;;;;;;;1.88;1.08;;;;;;;13.06;100.00;100255.50;5238897;28;20555;-73
2023/08/09 03:39:46;;;;;;;2.80;1.20;;;;;;;13.05;100.00;100263.47;5238380;28;20355;-74
2023/08/09 03:42:16;;;;;;;2.22;1.10;;;;;;;12.95;100.00;100259.59;5237755;28;20115;-73
2023/08/09 03:44:47;;;;;;;4.13;1.27;;;;;;;13.04;100.00;100267.03;5240387;28;20020;-73
2023/08/09 03:47:17;;;;;;;3.45;0.95;;;;;;;12.95;100.00;100272.72;5238915;28;20025;-73
2023/08/09 03:49:47;;;;;;;1.70;1.00;;;;;;;12.96;100.00;100273.56;5242387;28;20029;-73
2023/08/09 03:52:17;;;;;;;2.05;1.20;;;;;;;12.97;100.00;100268.22;5239934;28;20409;-71
2023/08/09 03:54:52;;;;;;;2.38;1.00;;;;;;;12.98;100.00;100276.03;5237012;28;20020;-72
2023/08/09 03:57:22;;;;;;;5.05;1.20;;;;;;;12.84;100.00;100279.38;5240921;28;20028;-73
2023/08/09 03:59:53;;;;;;;1.95;1.10;;;;;;;12.75;100.00;100285.94;5241855;28;20055;-73
2023/08/09 04:02:24;;;;;;;4.38;0.93;;;;;;;12.72;100.00;100285.22;5241983;28;20020;-73
2023/08/09 04:04:55;;;;;;;4.57;1.20;;;;;;;12.62;100.00;100292.69;5237602;28;20540;-74
2023/08/09 04:07:25;;;;;;;1.38;1.00;;;;;;;12.70;100.00;100295.81;5239657;28;20123;-72
2023/08/09 04:09:55;;;;;;;1.77;1.00;;;;;;;12.71;100.00;100297.50;5239379;28;20028;-73
2023/08/09 04:12:26;;;;;;;1.23;0.80;;;;;;;12.83;100.00;100296.06;5238044;28;20433;-73
2023/08/09 04:14:56;;;;;;;2.30;1.38;;;;;;;12.84;100.00;100303.81;5237505;28;20094;-72
2023/08/09 04:17:26;;;;;;;1.77;1.08;;;;;;;12.88;100.00;100303.59;5238019;28;20599;-73
2023/08/09 04:19:57;;;;;;;2.65;1.02;;;;;;;12.98;100.00;100307.53;5237348;28;20036;-72
2023/08/09 04:22:29;;;;;;;2.47;1.00;;;;;;;13.02;100.00;100310.81;5243405;28;20028;-73
2023/08/09 04:24:59;;;;;;;2.65;1.17;;;;;;;13.04;100.00;100312.44;5240420;28;20690;-73
2023/08/09 04:27:32;;;;;;;2.08;1.05;;;;;;;13.13;100.00;100311.16;5239546;28;20111;-73
2023/08/09 04:30:04;;;;;;;2.60;1.20;;;;;;;13.19;100.00;100310.81;5236249;28;20044;-73
2023/08/09 04:32:34;;;;;;;2.17;1.23;;;;;;;13.25;100.00;100326.28;5237981;28;20082;-74
2023/08/09 04:35:05;;;;;;;3.40;1.02;;;;;;;13.40;100.00;100320.25;5235429;28;20504;-73
2023/08/09 04:37:35;;;;;;;3.72;1.35;;;;;;;13.48;100.00;100323.34;5238944;28;20103;-72
2023/08/09 04:40:10;;;;;;;3.78;1.40;;;;;;;13.62;100.00;100319.09;5238271;28;20155;-73
2023/08/09 04:42:41;;;;;;;2.10;1.20;;;;;;;13.80;100.00;100326.00;5238544;28;20488;-73
2023/08/09 04:45:12;;;;;;;4.53;1.50;;;;;;;13.94;100.00;100322.63;5238323;28;20486;-74
2023/08/09 04:47:43;;;;;;;3.00;1.10;;;;;;;14.26;100.00;100322.63;5238939;28;20382;-73
2023/08/09 04:50:13;;;;;;;2.15;1.20;;;;;;;14.40;100.00;100322.72;5240363;28;20023;-73
2023/08/09 04:52:43;;;;;;;2.78;1.25;;;;;;;14.79;100.00;100319.66;5238666;28;20031;-74
2023/08/09 04:55:14;;;;;;;2.90;1.20;;;;;;;15.79;100.00;100317.16;5239049;28;20035;-74
2023/08/09 04:57:44;;;;;;;2.22;1.00;;;;;;;16.85;99.00;100317.38;5228570;28;20016;-73
2023/08/09 05:00:15;;;;;;;5.15;1.40;;;;;;;19.12;90.31;100305.59;5240207;28;20110;-74
2023/08/09 05:02:45;;;;;;;2.53;1.08;;;;;;;20.33;81.84;100314.66;5239606;28;20024;-74
2023/08/09 05:05:16;;;;;;;2.67;0.90;;;;;;;19.88;80.97;100318.25;5232025;28;20036;-73
2023/08/09 05:07:46;;;;;;;1.63;0.70;;;;;;;18.71;82.19;100321.03;5245348;28;20482;-73
2023/08/09 05:10:17;;;;;;;1.65;0.80;;;;;;;18.63;85.51;100320.75;5245819;28;20080;-74
2023/08/09 05:12:47;;;;;;;1.15;0.80;;;;;;;17.82;87.44;100329.22;5243760;28;20031;-73
2023/08/09 05:15:17;;;;;;;3.63;1.00;;;;;;;18.03;88.37;100329.53;5244746;28;20612;-74
2023/08/09 05:17:48;;;;;;;5.18;1.00;;;;;;;17.41;90.01;100336.50;5245704;28;20059;-72
2023/08/09 05:20:18;;;;;;;2.42;0.95;;;;;;;17.58;89.73;100343.25;5249097;28;20024;-74
2023/08/09 05:22:50;;;;;;;1.58;0.95;;;;;;;17.22;90.78;100343.06;5246573;28;20036;-73
2023/08/09 05:25:20;;;;;;;4.10;1.48;;;;;;;17.12;92.99;100347.28;5245985;28;20028;-73
2023/08/09 05:27:51;;;;;;;4.55;1.17;;;;;;;17.35;93.39;100350.09;5245611;28;20035;-73
2023/08/09 05:30:22;;;;;;;3.95;1.45;;;;;;;17.14;91.09;100355.94;5245465;28;20024;-73
2023/08/09 05:32:52;;;;;;;4.07;1.10;;;;;;;16.78;95.64;100353.88;5247921;28;20682;-73
2023/08/09 05:35:22;;;;;;;7.22;1.48;;;;;;;16.33;99.16;100361.19;5247118;28;20028;-74
2023/08/09 05:37:53;;;;;;;2.58;0.98;;;;;;;17.01;93.42;100365.59;5248717;28;20030;-73
2023/08/09 05:40:23;;;;;;;3.83;1.30;;;;;;;16.90;96.53;100362.81;5247795;28;20028;-73
2023/08/09 05:42:53;;;;;;;4.25;1.13;;;;;;;17.91;93.91;100365.63;5245182;28;20054;-74
2023/08/09 05:45:23;;;;;;;2.72;1.20;;;;;;;18.66;85.12;100359.41;5239884;28;20059;-73
2023/08/09 05:47:54;;;;;;;3.85;1.20;;;;;;;19.19;84.49;100359.84;5246534;28;20021;-73
2023/08/09 05:50:24;;;;;;;4.30;1.20;;;;;;;19.18;83.81;100353.72;5241065;28;20024;-73
2023/08/09 05:52:54;;;;;;;2.35;0.80;;;;;;;20.67;78.65;100353.47;5241364;28;20262;-73
2023/08/09 05:55:25;;;;;;;2.15;0.90;;;;;;;19.51;80.90;100367.13;5244106;28;20059;-74
2023/08/09 05:57:55;;;;;;;5.00;1.33;;;;;;;20.31;79.43;100369.66;5240268;28;20028;-74
2023/08/09 06:00:25;;;;;;;2.08;1.13;;;;;;;20.66;78.37;100359.75;5247846;28;20287;-74
2023/08/09 06:02:56;;;;;;;4.93;1.20;;;;;;;21.31;74.07;100358.78;5247019;28;20485;-73
2023/08/09 06:05:26;;;;;;;5.40;1.10;;;;;;;22.70;71.45;100359.88;5246130;28;20020;-74
2023/08/09 06:07:57;;;;;;;4.60;1.45;;;;;;;21.89;71.11;100368.06;5242744;28;20517;-74
2023/08/09 06:10:27;;;;;;;4.80;1.10;;;;;;;23.11;68.92;100367.72;5242826;28;20024;-74
2023/08/09 06:12:58;;;;;;;2.97;1.13;;;;;;;21.01;74.31;100371.06;5241020;28;20020;-72
2023/08/09 06:15:28;;;;;;;3.07;0.90;;;;;;;19.04;83.00;100384.78;5239642;28;20032;-74
2023/08/09 06:17:58;;;;;;;4.15;1.02;;;;;;;18.70;85.65;100387.38;5242572;28;20373;-73
2023/08/09 06:20:29;;;;;;;1.88;0.80;;;;;;;20.35;78.66;100384.41;5250819;28;20024;-73
2023/08/09 06:22:59;;;;;;;4.03;0.90;;;;;;;21.90;73.92;100383.06;5241898;28;20075;-73
2023/08/09 06:25:29;;;;;;;4.55;1.10;;;;;;;22.28;71.18;100388.59;5240148;28;20283;-73
2023/08/09 06:28:00;;;;;;;3.03;0.80;;;;;;;21.91;73.43;100398.03;5242450;28;20062;-74
2023/08/09 06:30:31;;;;;;;3.70;0.70;;;;;;;21.71;72.05;100396.22;5243888;28;20021;-73
2023/08/09 06:33:02;;;;;;;1.58;0.63;;;;;;;22.01;71.41;100396.25;5242911;28;20472;-73
2023/08/09 06:35:33;;;;;;;2.35;0.70;;;;;;;21.40;74.22;100394.41;5242749;28;20082;-73
2023/08/09 06:38:03;;;;;;;3.10;1.05;;;;;;;21.69;74.43;100392.81;5259979;22;20040;-74
2023/08/09 06:40:33;;;;;;;2.20;0.80;;;;;;;21.60;71.66;100401.56;5220527;28;20021;-73
2023/08/09 06:43:04;;;;;;;2.15;0.88;;;;;;;22.32;71.75;100396.19;5222113;28;20037;-74
2023/08/09 06:45:34;;;;;;;2.30;0.70;;;;;;;22.65;69.92;100398.59;5221197;28;20021;-74
2023/08/09 06:48:07;;;;;;;2.15;0.60;;;;;;;22.80;68.54;100392.75;5222402;28;20477;-73
2023/08/09 06:50:38;;;;;;;2.80;0.70;;;;;;;24.21;68.00;100395.63;5219846;28;20021;-73
2023/08/09 06:53:08;;;;;;;3.30;0.80;;;;;;;24.31;64.83;100393.78;5217622;28;20036;-73
2023/08/09 06:55:38;;;;;;;1.50;0.60;;;;;;;24.77;62.31;100399.94;5218857;28;20088;-73
2023/08/09 06:58:08;;;;;;;6.03;0.60;;;;;;;23.68;65.18;100413.09;5217441;28;20044;-72
2023/08/09 07:00:39;;;;;;;4.17;0.93;;;;;;;23.18;66.65;100424.88;5221204;28;20037;-72
2023/08/09 07:03:09;;;;;;;2.77;0.70;;;;;;;24.37;64.05;100417.22;5219695;28;20295;-72
2023/08/09 07:05:41;;;;;;;1.70;0.60;;;;;;;24.03;66.10;100424.06;5220735;28;20282;-73
2023/08/09 07:08:11;;;;;;;1.63;0.60;;;;;;;24.84;63.67;100425.06;5217348;28;20279;-73
2023/08/09 07:10:41;;;;;;;2.45;0.77;;;;;;;24.88;63.57;100423.81;5221562;28;20390;-73
2023/08/09 07:13:12;;;;;;;3.00;0.70;;;;;;;25.35;62.65;100422.69;5218940;28;20043;-73
2023/08/09 07:15:42;;;;;;;2.20;0.93;;;;;;;25.20;63.09;100434.06;5220561;28;20370;-72
2023/08/09 07:18:12;;;;;;;2.63;0.70;;;;;;;24.12;63.35;100438.38;5221861;28;20029;-73
2023/08/09 07:20:43;;;;;;;2.38;0.68;;;;;;;23.61;65.22;100444.03;5216996;28;20268;-73
2023/08/09 07:23:13;;;;;;;1.60;0.67;;;;;;;23.35;66.16;100447.38;5217276;28;20078;-72
2023/08/09 07:25:43;;;;;;;2.90;1.00;;;;;;;23.59;65.08;100437.13;5221531;28;20279;-72
2023/08/09 07:28:13;;;;;;;2.57;0.70;;;;;;;24.89;62.93;100446.03;5218368;28;20417;-72
2023/08/09 07:30:44;;;;;;;2.63;0.43;;;;;;;26.49;59.11;100440.44;5221208;28;20028;-72
2023/08/09 07:33:14;;;;;;;3.50;0.80;;;;;;;24.51;61.46;100450.66;5220105;28;20167;-72
2023/08/09 07:35:44;;;;;;;2.67;0.93;;;;;;;24.15;64.26;100460.31;5218455;28;20502;-72
2023/08/09 07:38:16;;;;;;;2.53;0.47;;;;;;;25.10;61.54;100460.84;5217011;28;20048;-72
2023/08/09 07:40:46;;;;;;;2.70;0.73;;;;;;;26.10;60.53;100462.41;5217198;28;20283;-72
2023/08/09 07:43:16;;;;;;;2.40;0.77;;;;;;;25.68;61.30;100472.06;5219025;28;20025;-72
2023/08/09 07:45:49;;;;;;;2.43;0.70;;;;;;;25.82;60.33;100467.00;5220950;28;20036;-73
2023/08/09 07:48:19;;;;;;;1.13;0.50;;;;;;;25.69;60.48;100479.09;5218122;28;20449;-73
2023/08/09 07:50:50;;;;;;;3.35;0.70;;;;;;;25.67;61.26;100473.88;5216211;28;20037;-72
2023/08/09 07:53:20;;;;;;;2.97;0.70;;;;;;;23.05;63.79;100477.56;5217816;28;20052;-72
2023/08/09 07:55:50;;;;;;;1.90;0.70;;;;;;;24.45;64.65;100481.50;5216104;28;20302;-72
2023/08/09 07:58:21;;;;;;;5.20;0.80;;;;;;;23.81;64.45;100482.22;5217669;28;20093;-72
2023/08/09 08:00:52;;;;;;;2.10;0.70;;;;;;;24.75;60.44;100478.59;5220328;28;20017;-72
2023/08/09 08:03:22;;;;;;;1.88;0.80;;;;;;;26.87;59.01;100467.66;5218448;28;20025;-72
2023/08/09 08:05:52;;;;;;;4.40;1.03;;;;;;;26.25;58.97;100472.44;5220254;28;20032;-72
2023/08/09 08:08:23;;;;;;;2.07;0.80;;;;;;;26.07;59.53;100474.31;5218706;28;20284;-72
2023/08/09 08:10:53;;;;;;;3.83;0.95;;;;;;;24.88;60.29;100493.34;5217493;28;20282;-72
2023/08/09 08:13:23;;;;;;;4.10;0.95;;;;;;;26.02;59.10;100484.63;5217931;28;20103;-72
2023/08/09 08:15:54;;;;;;;2.30;0.73;;;;;;;27.64;56.65;100486.22;5219101;28;20036;-72
2023/08/09 08:18:25;;;;;;;3.40;0.83;;;;;;;26.41;58.41;100485.09;5217727;28;20170;-72
2023/08/09 08:20:57;;;;;;;2.03;0.68;;;;;;;25.49;58.47;100494.44;5217115;28;20207;-72
2023/08/09 08:23:27;;;;;;;1.80;0.50;;;;;;;24.03;60.31;100487.34;5217754;28;20040;-72
2023/08/09 08:25:57;;;;;;;1.85;0.52;;;;;;;25.72;58.35;100493.03;5217359;28;20033;-72
2023/08/09 08:28:28;;;;;;;2.37;0.47;;;;;;;25.88;57.69;100492.38;5217637;28;20390;-72
2023/08/09 08:31:00;;;;;;;2.08;0.52;;;;;;;28.47;53.17;100491.38;5218697;28;20654;-72
2023/08/09 08:33:31;;;;;;;2.00;0.60;;;;;;;25.54;58.90;100491.31;5217747;28;20090;-72
2023/08/09 08:36:01;;;;;;;1.20;0.50;;;;;;;26.35;58.96;100489.25;5216499;28;20036;-72
2023/08/09 08:38:31;;;;;;;2.38;1.00;;;;;;;27.35;56.86;100494.72;5217394;28;20116;-71
2023/08/09 08:41:02;;;;;;;5.67;0.77;;;;;;;24.73;60.67;100499.31;5221234;28;20064;-72
2023/08/09 08:43:32;;;;;;;1.58;0.52;;;;;;;23.46;63.31;100503.25;5222445;28;20337;-71
2023/08/09 08:46:07;;;;;;;2.50;0.70;;;;;;;22.74;63.57;100517.72;5219924;28;20025;-71
2023/08/09 08:48:37;;;;;;;3.00;0.63;;;;;;;25.01;60.90;100507.22;5217998;28;20029;-72
2023/08/09 08:51:08;;;;;;;5.70;0.80;;;;;;;26.72;58.59;100503.25;5221749;28;20414;-72
2023/08/09 08:53:39;;;;;;;1.83;0.70;;;;;;;25.40;58.29;100521.28;5219418;28;20053;-71
2023/08/09 08:56:09;;;;;;;1.95;0.70;;;;;;;24.36;61.81;100522.44;5217815;28;20435;-71
2023/08/09 08:58:40;;;;;;;1.83;0.73;;;;;;;25.34;58.97;100527.25;5219941;28;20136;-72
2023/08/09 09:01:11;;;;;;;2.40;0.55;;;;;;;26.44;55.82;100514.28;5219901;28;20773;-72
2023/08/09 09:03:41;;;;;;;2.10;0.73;;;;;;;27.29;55.65;100516.00;5219079;28;20455;-71
2023/08/09 09:06:12;;;;;;;2.33;0.50;;;;;;;27.16;53.56;100515.59;5220162;28;20067;-72
2023/08/09 09:08:44;;;;;;;2.70;0.68;;;;;;;28.42;51.63;100518.75;5219820;28;20887;-72
2023/08/09 09:11:15;;;;;;;2.60;0.75;;;;;;;26.81;53.75;100523.78;5216931;28;20111;-71
2023/08/09 09:13:47;;;;;;;4.40;0.43;;;;;;;25.51;54.35;100521.09;5218578;28;20029;-70
2023/08/09 09:16:20;;;;;;;3.85;0.85;;;;;;;25.11;56.88;100526.75;5219293;28;20108;-71
2023/08/09 09:18:50;;;;;;;3.58;0.80;;;;;;;24.74;57.55;100530.41;5214913;28;20834;-71
2023/08/09 09:21:30;;;;;;;2.77;0.60;;;;;;;23.82;59.83;100527.50;5219829;28;20067;-70
2023/08/09 09:24:08;;;;;;;2.20;0.50;;;;;;;23.78;59.68;100518.06;5217398;28;20378;-71
2023/08/09 09:26:38;;;;;;;3.38;0.63;;;;;;;23.71;60.05;100514.25;5219729;28;20037;-71
2023/08/09 09:29:09;;;;;;;3.10;0.70;;;;;;;22.83;62.73;100525.75;5216531;28;20499;-71
2023/08/09 09:31:39;;;;;;;2.65;0.70;;;;;;;22.18;65.07;100531.47;5219579;28;20044;-71
2023/08/09 09:34:10;;;;;;;1.52;0.50;;;;;;;22.10;63.31;100524.13;5217551;28;20029;-72
2023/08/09 09:36:48;;;;;;;3.15;0.63;;;;;;;22.86;62.67;100530.81;5219565;28;20114;-71
2023/08/09 09:39:18;;;;;;;3.40;0.60;;;;;;;23.43;62.74;100511.53;5218642;28;20032;-71
2023/08/09 09:41:50;;;;;;;1.80;0.50;;;;;;;22.80;63.64;100512.69;5217273;28;20041;-70
2023/08/09 09:44:21;;;;;;;2.30;0.50;;;;;;;22.96;62.37;100517.53;5218711;28;20048;-71
2023/08/09 09:47:01;;;;;;;2.20;0.47;;;;;;;23.39;62.36;100513.63;5217366;28;20441;-71
2023/08/09 09:49:35;;;;;;;3.92;0.80;;;;;;;23.31;62.29;100521.50;5219272;28;20045;-71
2023/08/09 09:52:05;;;;;;;2.13;0.52;;;;;;;23.37;61.16;100530.78;5217075;28;20048;-72
2023/08/09 09:54:36;;;;;;;2.72;0.52;;;;;;;23.36;61.64;100519.25;5216480;28;20017;-72
2023/08/09 09:57:06;;;;;;;2.00;0.60;;;;;;;23.47;61.97;100516.47;5216586;28;20041;-72
2023/08/09 09:59:39;;;;;;;2.23;0.70;;;;;;;22.46;62.35;100521.03;5219062;28;20028;-71
2023/08/09 10:02:10;;;;;;;1.77;0.60;;;;;;;22.48;63.74;100524.44;5217163;28;20519;-71
2023/08/09 10:04:43;;;;;;;528.90;51.45;;;;;;;22.98;60.62;100524.44;5221301;28;20419;-71
2023/08/09 10:07:14;;;;;;;248.15;37.20;;;;;;;23.05;62.32;100522.91;5219196;28;20036;-70
2023/08/09 10:09:46;;;;;;;19.65;7.38;;;;;;;22.85;60.69;100534.47;5220216;28;20035;-71
2023/08/09 10:12:17;;;;;;;11.77;4.47;;;;;;;23.06;59.90;100529.91;5217433;28;20041;-70
2023/08/09 10:14:47;;;;;;;64.90;21.98;;;;;;;23.06;60.38;100532.59;5220565;28;20376;-71
2023/08/09 10:17:19;;;;;;;10.38;5.00;;;;;;;23.02;62.64;100525.00;5217542;28;20124;-71
2023/08/09 10:19:50;;;;;;;77.43;30.63;;;;;;;23.53;62.62;100521.25;5217274;28;20032;-71
2023/08/09 10:22:21;;;;;;;7.05;2.50;;;;;;;22.98;59.43;100535.09;5218560;28;20080;-71
2023/08/09 10:24:51;;;;;;;2.13;0.75;;;;;;;22.27;62.00;100534.19;5218098;28;20510;-71
2023/08/09 10:27:51;;;;;;;6.78;2.05;;;;;;;22.53;61.14;100538.22;5218073;28;20110;-71
2023/08/09 10:30:28;;;;;;;10.40;3.22;;;;;;;22.69;60.91;100539.41;5220076;28;20099;-71
2023/08/09 10:32:58;;;;;;;4.75;1.65;;;;;;;22.17;62.28;100535.97;5217487;28;20041;-72
2023/08/09 10:35:49;;;;;;;11.70;2.22;;;;;;;21.66;63.92;100545.59;5217631;28;20441;-71
2023/08/09 10:38:39;;;;;;;3.53;0.95;;;;;;;22.51;62.43;100540.16;5216363;28;20044;-70
2023/08/09 10:41:11;;;;;;;2.67;0.50;;;;;;;22.61;62.78;100541.06;5213772;28;20172;-71
2023/08/09 10:43:42;;;;;;;7.00;2.17;;;;;;;22.42;60.98;100546.25;5215507;28;20338;-71
2023/08/09 10:46:32;;;;;;;4.60;1.70;;;;;;;22.46;62.72;100546.84;5215092;28;20055;-71
2023/08/09 10:49:08;;;;;;;2.22;0.70;;;;;;;22.35;62.56;100536.22;5217463;28;20116;-71
2023/08/09 10:51:46;;;;;;;1.10;0.40;;;;;;;22.08;64.32;100542.03;5218694;28;20241;-71
2023/08/09 10:54:21;;;;;;;3.00;0.60;;;;;;;21.50;63.06;100544.25;5215700;28;20550;-71
2023/08/09 10:56:53;;;;;;;2.80;0.97;;;;;;;21.29;62.30;100544.19;5215672;28;20036;-74
2023/08/09 10:59:25;;;;;;;4.95;1.15;;;;;;;21.36;61.74;100547.16;5217807;28;20399;-71
2023/08/09 11:01:55;;;;;;;4.90;1.35;;;;;;;21.32;62.32;100553.72;5217526;28;20044;-72
2023/08/09 11:04:25;;;;;;;1.83;0.38;;;;;;;21.35;62.64;100542.81;5213449;28;20041;-71
2023/08/09 11:06:56;;;;;;;2.80;0.30;;;;;;;22.01;61.11;100537.34;5216033;28;20475;-71
2023/08/09 11:09:32;;;;;;;2.95;0.70;;;;;;;22.36;59.89;100546.75;5216071;28;20394;-72
2023/08/09 11:12:05;;;;;;;1.33;0.57;;;;;;;22.03;61.43;100538.06;5217048;28;20036;-71
2023/08/09 11:14:36;;;;;;;2.92;0.73;;;;;;;22.63;61.67;100532.94;5218284;28;20033;-72
2023/08/09 11:17:12;;;;;;;1.42;0.47;;;;;;;22.71;58.30;100545.47;5217030;28;20036;-72
2023/08/09 11:19:42;;;;;;;5.22;0.43;;;;;;;22.36;58.29;100540.56;5217416;28;20039;-72
2023/08/09 11:22:13;;;;;;;1.30;0.60;;;;;;;22.38;61.32;100551.94;5217500;28;20033;-71
2023/08/09 11:24:43;;;;;;;2.65;0.65;;;;;;;22.00;60.38;100554.31;5216259;28;20332;-72
2023/08/09 11:27:13;;;;;;;1.52;0.50;;;;;;;21.51;61.67;100556.59;5215536;28;20040;-70
2023/08/09 11:29:47;;;;;;;1.75;0.52;;;;;;;21.63;63.02;100566.28;5217376;28;20059;-72
2023/08/09 11:32:27;;;;;;;0.80;0.45;;;;;;;21.51;62.07;100564.56;5214325;28;20036;-71
2023/08/09 11:34:58;;;;;;;2.10;0.50;;;;;;;21.58;61.42;100557.78;5216431;28;20124;-71
2023/08/09 11:37:30;;;;;;;1.70;0.50;;;;;;;21.40;61.88;100560.09;5216250;28;20170;-71
2023/08/09 11:40:00;;;;;;;0.93;0.35;;;;;;;21.43;62.26;100562.50;5214524;28;20025;-70
2023/08/09 11:42:31;;;;;;;4.10;0.65;;;;;;;21.61;62.60;100562.88;5216305;28;20036;-72
2023/08/09 11:45:03;;;;;;;2.30;0.60;;;;;;;22.04;60.94;100563.72;5214932;28;20720;-70